sensor_id;sensor_type;location;lat;lon;timestamp;P1;durP1;ratioP1;P2;durP2;ratioP2
58208;SDS011;44006;52.028;4.696;2023-05-14T00:00:07;24.30;;;18.42;;
58208;SDS011;44006;52.028;4.696;2023-05-14T00:02:32;25.88;;;18.65;;
58208;SDS011;44006;52.028;4.696;2023-05-14T00:04:57;27.00;;;18.88;;
58208;SDS011;44006;52.028;4.696;2023-05-14T00:07:23;28.90;;;19.13;;
58208;SDS011;44006;52.028;4.696;2023-05-14T00:09:54;24.92;;;17.77;;
58208;SDS011;44006;52.028;4.696;2023-05-14T00:12:20;23.83;;;17.85;;
58208;SDS011;44006;52.028;4.696;2023-05-14T00:14:46;25.85;;;18.67;;
58208;SDS011;44006;52.028;4.696;2023-05-14T00:17:15;24.92;;;19.17;;
58208;SDS011;44006;52.028;4.696;2023-05-14T00:19:56;25.48;;;18.60;;
58208;SDS011;44006;52.028;4.696;2023-05-14T00:25:05;30.08;;;19.85;;
58208;SDS011;44006;52.028;4.696;2023-05-14T00:27:32;26.00;;;18.10;;
58208;SDS011;44006;52.028;4.696;2023-05-14T00:29:59;26.42;;;19.33;;
58208;SDS011;44006;52.028;4.696;2023-05-14T00:32:24;25.95;;;18.10;;
58208;SDS011;44006;52.028;4.696;2023-05-14T00:34:49;25.55;;;17.77;;
58208;SDS011;44006;52.028;4.696;2023-05-14T00:37:15;25.02;;;17.90;;
58208;SDS011;44006;52.028;4.696;2023-05-14T00:39:41;29.70;;;18.88;;
58208;SDS011;44006;52.028;4.696;2023-05-14T00:42:06;25.65;;;17.13;;
58208;SDS011;44006;52.028;4.696;2023-05-14T00:44:31;23.70;;;18.67;;
58208;SDS011;44006;52.028;4.696;2023-05-14T00:46:57;25.85;;;18.75;;
58208;SDS011;44006;52.028;4.696;2023-05-14T00:49:22;25.73;;;17.90;;
58208;SDS011;44006;52.028;4.696;2023-05-14T00:51:47;26.40;;;18.42;;
58208;SDS011;44006;52.028;4.696;2023-05-14T00:54:14;24.80;;;17.80;;
58208;SDS011;44006;52.028;4.696;2023-05-14T00:56:39;23.83;;;17.92;;
58208;SDS011;44006;52.028;4.696;2023-05-14T00:59:05;23.52;;;17.27;;
58208;SDS011;44006;52.028;4.696;2023-05-14T01:01:30;23.30;;;17.30;;
58208;SDS011;44006;52.028;4.696;2023-05-14T01:03:56;23.42;;;16.40;;
58208;SDS011;44006;52.028;4.696;2023-05-14T01:06:27;25.20;;;18.15;;
58208;SDS011;44006;52.028;4.696;2023-05-14T01:09:10;29.00;;;18.25;;
58208;SDS011;44006;52.028;4.696;2023-05-14T01:14:23;24.85;;;17.92;;
58208;SDS011;44006;52.028;4.696;2023-05-14T01:16:51;28.40;;;18.10;;
58208;SDS011;44006;52.028;4.696;2023-05-14T01:19:26;23.33;;;17.33;;
58208;SDS011;44006;52.028;4.696;2023-05-14T01:21:53;25.60;;;17.58;;
58208;SDS011;44006;52.028;4.696;2023-05-14T01:24:18;23.95;;;17.48;;
58208;SDS011;44006;52.028;4.696;2023-05-14T01:26:44;27.00;;;16.92;;
58208;SDS011;44006;52.028;4.696;2023-05-14T01:29:20;26.42;;;17.60;;
58208;SDS011;44006;52.028;4.696;2023-05-14T01:31:46;26.33;;;17.80;;
58208;SDS011;44006;52.028;4.696;2023-05-14T01:34:13;25.02;;;16.90;;
58208;SDS011;44006;52.028;4.696;2023-05-14T01:36:38;22.75;;;16.73;;
58208;SDS011;44006;52.028;4.696;2023-05-14T01:39:04;24.63;;;16.73;;
58208;SDS011;44006;52.028;4.696;2023-05-14T01:41:33;24.90;;;17.13;;
58208;SDS011;44006;52.028;4.696;2023-05-14T01:44:01;27.45;;;18.15;;
58208;SDS011;44006;52.028;4.696;2023-05-14T01:46:30;27.52;;;17.63;;
58208;SDS011;44006;52.028;4.696;2023-05-14T01:48:56;25.13;;;17.73;;
58208;SDS011;44006;52.028;4.696;2023-05-14T01:51:21;27.85;;;17.95;;
58208;SDS011;44006;52.028;4.696;2023-05-14T01:53:46;26.23;;;18.02;;
58208;SDS011;44006;52.028;4.696;2023-05-14T01:56:12;27.03;;;18.13;;
58208;SDS011;44006;52.028;4.696;2023-05-14T01:58:37;26.67;;;18.00;;
58208;SDS011;44006;52.028;4.696;2023-05-14T02:01:03;27.77;;;18.85;;
58208;SDS011;44006;52.028;4.696;2023-05-14T02:03:28;27.33;;;18.42;;
58208;SDS011;44006;52.028;4.696;2023-05-14T02:05:54;29.75;;;19.38;;
58208;SDS011;44006;52.028;4.696;2023-05-14T02:08:19;28.08;;;19.48;;
58208;SDS011;44006;52.028;4.696;2023-05-14T02:10:44;26.17;;;18.02;;
58208;SDS011;44006;52.028;4.696;2023-05-14T02:13:11;26.67;;;18.33;;
58208;SDS011;44006;52.028;4.696;2023-05-14T02:15:37;29.17;;;19.58;;
58208;SDS011;44006;52.028;4.696;2023-05-14T02:18:02;26.55;;;18.75;;
58208;SDS011;44006;52.028;4.696;2023-05-14T02:20:28;29.63;;;19.98;;
58208;SDS011;44006;52.028;4.696;2023-05-14T02:22:54;28.48;;;19.52;;
58208;SDS011;44006;52.028;4.696;2023-05-14T02:25:19;26.38;;;18.70;;
58208;SDS011;44006;52.028;4.696;2023-05-14T02:27:44;26.90;;;19.45;;
58208;SDS011;44006;52.028;4.696;2023-05-14T02:30:09;30.20;;;20.45;;
58208;SDS011;44006;52.028;4.696;2023-05-14T02:32:35;30.30;;;19.42;;
58208;SDS011;44006;52.028;4.696;2023-05-14T02:35:00;27.20;;;20.15;;
58208;SDS011;44006;52.028;4.696;2023-05-14T02:37:26;31.35;;;20.92;;
58208;SDS011;44006;52.028;4.696;2023-05-14T02:39:52;26.88;;;18.75;;
58208;SDS011;44006;52.028;4.696;2023-05-14T02:42:17;31.20;;;20.88;;
58208;SDS011;44006;52.028;4.696;2023-05-14T02:44:42;28.67;;;19.73;;
58208;SDS011;44006;52.028;4.696;2023-05-14T02:47:08;29.67;;;20.38;;
58208;SDS011;44006;52.028;4.696;2023-05-14T02:49:34;31.92;;;21.17;;
58208;SDS011;44006;52.028;4.696;2023-05-14T02:51:59;27.40;;;19.50;;
58208;SDS011;44006;52.028;4.696;2023-05-14T02:54:25;28.85;;;19.67;;
58208;SDS011;44006;52.028;4.696;2023-05-14T02:56:50;32.33;;;21.33;;
58208;SDS011;44006;52.028;4.696;2023-05-14T02:59:15;31.30;;;19.90;;
58208;SDS011;44006;52.028;4.696;2023-05-14T03:01:40;27.88;;;19.70;;
58208;SDS011;44006;52.028;4.696;2023-05-14T03:04:06;31.30;;;20.75;;
58208;SDS011;44006;52.028;4.696;2023-05-14T03:06:31;30.63;;;20.25;;
58208;SDS011;44006;52.028;4.696;2023-05-14T03:08:57;27.85;;;20.13;;
58208;SDS011;44006;52.028;4.696;2023-05-14T03:11:22;27.90;;;20.42;;
58208;SDS011;44006;52.028;4.696;2023-05-14T03:13:47;32.05;;;20.73;;
58208;SDS011;44006;52.028;4.696;2023-05-14T03:16:13;28.58;;;20.33;;
58208;SDS011;44006;52.028;4.696;2023-05-14T03:18:38;31.88;;;21.25;;
58208;SDS011;44006;52.028;4.696;2023-05-14T03:21:03;29.67;;;20.10;;
58208;SDS011;44006;52.028;4.696;2023-05-14T03:23:28;31.63;;;21.35;;
58208;SDS011;44006;52.028;4.696;2023-05-14T03:25:56;33.40;;;20.90;;
58208;SDS011;44006;52.028;4.696;2023-05-14T03:28:21;31.63;;;21.05;;
58208;SDS011;44006;52.028;4.696;2023-05-14T03:30:46;31.88;;;20.98;;
58208;SDS011;44006;52.028;4.696;2023-05-14T03:33:12;29.95;;;20.27;;
58208;SDS011;44006;52.028;4.696;2023-05-14T03:35:37;33.22;;;21.08;;
58208;SDS011;44006;52.028;4.696;2023-05-14T03:38:02;30.37;;;20.67;;
58208;SDS011;44006;52.028;4.696;2023-05-14T03:40:27;31.58;;;21.25;;
58208;SDS011;44006;52.028;4.696;2023-05-14T03:42:53;29.08;;;20.83;;
58208;SDS011;44006;52.028;4.696;2023-05-14T03:45:18;32.53;;;21.23;;
58208;SDS011;44006;52.028;4.696;2023-05-14T03:47:43;31.80;;;20.83;;
58208;SDS011;44006;52.028;4.696;2023-05-14T03:50:09;33.03;;;20.80;;
58208;SDS011;44006;52.028;4.696;2023-05-14T03:52:34;36.55;;;21.23;;
58208;SDS011;44006;52.028;4.696;2023-05-14T03:54:59;31.88;;;19.92;;
58208;SDS011;44006;52.028;4.696;2023-05-14T03:57:24;30.38;;;20.73;;
58208;SDS011;44006;52.028;4.696;2023-05-14T03:59:50;29.70;;;19.95;;
58208;SDS011;44006;52.028;4.696;2023-05-14T04:02:15;32.58;;;19.23;;
58208;SDS011;44006;52.028;4.696;2023-05-14T04:04:40;27.27;;;19.33;;
58208;SDS011;44006;52.028;4.696;2023-05-14T04:07:06;27.92;;;20.60;;
58208;SDS011;44006;52.028;4.696;2023-05-14T04:09:32;26.65;;;18.55;;
58208;SDS011;44006;52.028;4.696;2023-05-14T04:11:58;32.65;;;20.15;;
58208;SDS011;44006;52.028;4.696;2023-05-14T04:14:23;33.22;;;19.48;;
58208;SDS011;44006;52.028;4.696;2023-05-14T04:16:48;28.98;;;18.98;;
58208;SDS011;44006;52.028;4.696;2023-05-14T04:19:13;29.33;;;19.25;;
58208;SDS011;44006;52.028;4.696;2023-05-14T04:21:39;30.17;;;19.30;;
58208;SDS011;44006;52.028;4.696;2023-05-14T04:24:04;25.75;;;18.55;;
58208;SDS011;44006;52.028;4.696;2023-05-14T04:26:30;26.25;;;18.02;;
58208;SDS011;44006;52.028;4.696;2023-05-14T04:28:56;29.38;;;18.40;;
58208;SDS011;44006;52.028;4.696;2023-05-14T04:31:22;30.63;;;18.55;;
58208;SDS011;44006;52.028;4.696;2023-05-14T04:33:47;26.50;;;18.52;;
58208;SDS011;44006;52.028;4.696;2023-05-14T04:36:13;27.60;;;17.67;;
58208;SDS011;44006;52.028;4.696;2023-05-14T04:38:38;23.77;;;17.63;;
58208;SDS011;44006;52.028;4.696;2023-05-14T04:41:04;27.45;;;18.23;;
58208;SDS011;44006;52.028;4.696;2023-05-14T04:43:30;24.48;;;17.17;;
58208;SDS011;44006;52.028;4.696;2023-05-14T04:45:57;29.67;;;18.50;;
58208;SDS011;44006;52.028;4.696;2023-05-14T04:48:22;27.85;;;17.77;;
58208;SDS011;44006;52.028;4.696;2023-05-14T04:50:47;23.33;;;17.33;;
58208;SDS011;44006;52.028;4.696;2023-05-14T04:53:12;28.10;;;18.08;;
58208;SDS011;44006;52.028;4.696;2023-05-14T04:55:38;23.42;;;16.95;;
58208;SDS011;44006;52.028;4.696;2023-05-14T04:58:03;27.52;;;18.45;;
58208;SDS011;44006;52.028;4.696;2023-05-14T05:00:29;26.60;;;17.88;;
58208;SDS011;44006;52.028;4.696;2023-05-14T05:02:54;24.75;;;18.45;;
58208;SDS011;44006;52.028;4.696;2023-05-14T05:05:20;29.42;;;19.27;;
58208;SDS011;44006;52.028;4.696;2023-05-14T05:07:45;27.38;;;18.23;;
58208;SDS011;44006;52.028;4.696;2023-05-14T05:10:10;31.20;;;20.52;;
58208;SDS011;44006;52.028;4.696;2023-05-14T05:12:37;26.80;;;19.05;;
58208;SDS011;44006;52.028;4.696;2023-05-14T05:15:02;27.73;;;19.23;;
58208;SDS011;44006;52.028;4.696;2023-05-14T05:17:28;27.15;;;19.77;;
58208;SDS011;44006;52.028;4.696;2023-05-14T05:19:53;32.42;;;19.80;;
58208;SDS011;44006;52.028;4.696;2023-05-14T05:22:19;27.10;;;19.80;;
58208;SDS011;44006;52.028;4.696;2023-05-14T05:24:44;28.42;;;19.80;;
58208;SDS011;44006;52.028;4.696;2023-05-14T05:27:11;30.05;;;20.70;;
58208;SDS011;44006;52.028;4.696;2023-05-14T05:29:36;32.78;;;20.77;;
58208;SDS011;44006;52.028;4.696;2023-05-14T05:32:01;29.48;;;20.63;;
58208;SDS011;44006;52.028;4.696;2023-05-14T05:34:27;30.02;;;21.65;;
58208;SDS011;44006;52.028;4.696;2023-05-14T05:36:52;29.48;;;20.25;;
58208;SDS011;44006;52.028;4.696;2023-05-14T05:39:17;30.92;;;21.25;;
58208;SDS011;44006;52.028;4.696;2023-05-14T05:41:42;31.75;;;21.00;;
58208;SDS011;44006;52.028;4.696;2023-05-14T05:44:08;33.42;;;21.75;;
58208;SDS011;44006;52.028;4.696;2023-05-14T05:46:34;30.77;;;19.58;;
58208;SDS011;44006;52.028;4.696;2023-05-14T05:49:01;29.50;;;20.75;;
58208;SDS011;44006;52.028;4.696;2023-05-14T05:51:26;30.77;;;20.08;;
58208;SDS011;44006;52.028;4.696;2023-05-14T05:53:51;34.42;;;21.15;;
58208;SDS011;44006;52.028;4.696;2023-05-14T05:56:17;32.05;;;20.85;;
58208;SDS011;44006;52.028;4.696;2023-05-14T06:01:36;31.48;;;22.88;;
58208;SDS011;44006;52.028;4.696;2023-05-14T06:10:07;41.15;;;26.63;;
58208;SDS011;44006;52.028;4.696;2023-05-14T06:12:33;41.70;;;26.55;;
58208;SDS011;44006;52.028;4.696;2023-05-14T06:14:58;38.60;;;26.20;;
58208;SDS011;44006;52.028;4.696;2023-05-14T06:17:23;43.28;;;26.77;;
58208;SDS011;44006;52.028;4.696;2023-05-14T06:19:50;44.92;;;26.38;;
58208;SDS011;44006;52.028;4.696;2023-05-14T06:22:15;43.10;;;26.60;;
58208;SDS011;44006;52.028;4.696;2023-05-14T06:24:40;41.15;;;26.13;;
58208;SDS011;44006;52.028;4.696;2023-05-14T06:27:05;40.75;;;27.45;;
58208;SDS011;44006;52.028;4.696;2023-05-14T06:29:31;41.60;;;27.17;;
58208;SDS011;44006;52.028;4.696;2023-05-14T06:31:59;42.10;;;27.13;;
58208;SDS011;44006;52.028;4.696;2023-05-14T06:34:25;46.15;;;30.90;;
58208;SDS011;44006;52.028;4.696;2023-05-14T06:36:51;50.13;;;29.40;;
58208;SDS011;44006;52.028;4.696;2023-05-14T06:39:16;42.95;;;29.63;;
58208;SDS011;44006;52.028;4.696;2023-05-14T06:41:41;44.20;;;29.38;;
58208;SDS011;44006;52.028;4.696;2023-05-14T06:44:07;41.38;;;28.33;;
58208;SDS011;44006;52.028;4.696;2023-05-14T06:46:32;37.88;;;28.65;;
58208;SDS011;44006;52.028;4.696;2023-05-14T06:48:57;41.75;;;28.30;;
58208;SDS011;44006;52.028;4.696;2023-05-14T06:51:23;42.10;;;28.70;;
58208;SDS011;44006;52.028;4.696;2023-05-14T06:53:49;40.72;;;29.25;;
58208;SDS011;44006;52.028;4.696;2023-05-14T06:56:15;38.38;;;27.33;;
58208;SDS011;44006;52.028;4.696;2023-05-14T06:58:40;44.13;;;28.83;;
58208;SDS011;44006;52.028;4.696;2023-05-14T07:01:05;42.50;;;28.27;;
58208;SDS011;44006;52.028;4.696;2023-05-14T07:03:31;41.30;;;29.25;;
58208;SDS011;44006;52.028;4.696;2023-05-14T07:05:56;39.70;;;28.30;;
58208;SDS011;44006;52.028;4.696;2023-05-14T07:08:21;36.30;;;27.73;;
58208;SDS011;44006;52.028;4.696;2023-05-14T07:10:48;45.85;;;27.92;;
58208;SDS011;44006;52.028;4.696;2023-05-14T07:15:42;39.10;;;27.65;;
58208;SDS011;44006;52.028;4.696;2023-05-14T07:18:07;38.10;;;26.27;;
58208;SDS011;44006;52.028;4.696;2023-05-14T07:20:32;41.97;;;27.60;;
58208;SDS011;44006;52.028;4.696;2023-05-14T07:22:58;37.65;;;25.48;;
58208;SDS011;44006;52.028;4.696;2023-05-14T07:25:23;39.08;;;26.35;;
58208;SDS011;44006;52.028;4.696;2023-05-14T07:27:48;34.38;;;25.23;;
58208;SDS011;44006;52.028;4.696;2023-05-14T07:30:14;32.80;;;24.15;;
58208;SDS011;44006;52.028;4.696;2023-05-14T07:32:39;31.02;;;22.85;;
58208;SDS011;44006;52.028;4.696;2023-05-14T07:35:04;33.33;;;23.08;;
58208;SDS011;44006;52.028;4.696;2023-05-14T07:37:30;29.70;;;22.48;;
58208;SDS011;44006;52.028;4.696;2023-05-14T07:39:55;32.92;;;22.02;;
58208;SDS011;44006;52.028;4.696;2023-05-14T07:42:21;32.13;;;21.65;;
58208;SDS011;44006;52.028;4.696;2023-05-14T07:44:49;32.58;;;22.00;;
58208;SDS011;44006;52.028;4.696;2023-05-14T07:47:15;27.75;;;19.98;;
58208;SDS011;44006;52.028;4.696;2023-05-14T07:49:40;29.45;;;20.00;;
58208;SDS011;44006;52.028;4.696;2023-05-14T07:52:05;27.23;;;19.23;;
58208;SDS011;44006;52.028;4.696;2023-05-14T07:54:31;34.90;;;19.90;;
58208;SDS011;44006;52.028;4.696;2023-05-14T07:56:56;27.00;;;17.98;;
58208;SDS011;44006;52.028;4.696;2023-05-14T07:59:21;28.40;;;17.30;;
58208;SDS011;44006;52.028;4.696;2023-05-14T08:01:46;23.50;;;17.23;;
58208;SDS011;44006;52.028;4.696;2023-05-14T08:04:12;23.60;;;18.38;;
58208;SDS011;44006;52.028;4.696;2023-05-14T08:06:40;25.75;;;17.85;;
58208;SDS011;44006;52.028;4.696;2023-05-14T08:09:05;23.55;;;16.55;;
58208;SDS011;44006;52.028;4.696;2023-05-14T08:11:30;22.60;;;17.20;;
58208;SDS011;44006;52.028;4.696;2023-05-14T08:13:56;27.52;;;17.27;;
58208;SDS011;44006;52.028;4.696;2023-05-14T08:16:21;23.08;;;17.27;;
58208;SDS011;44006;52.028;4.696;2023-05-14T08:18:50;23.92;;;15.95;;
58208;SDS011;44006;52.028;4.696;2023-05-14T08:21:15;22.85;;;15.15;;
58208;SDS011;44006;52.028;4.696;2023-05-14T08:23:40;19.10;;;14.73;;
58208;SDS011;44006;52.028;4.696;2023-05-14T08:26:07;23.52;;;16.70;;
58208;SDS011;44006;52.028;4.696;2023-05-14T08:28:32;24.10;;;17.00;;
58208;SDS011;44006;52.028;4.696;2023-05-14T08:30:57;24.73;;;16.52;;
58208;SDS011;44006;52.028;4.696;2023-05-14T08:33:23;22.40;;;15.90;;
58208;SDS011;44006;52.028;4.696;2023-05-14T08:35:51;22.02;;;14.98;;
58208;SDS011;44006;52.028;4.696;2023-05-14T08:38:17;34.95;;;16.58;;
58208;SDS011;44006;52.028;4.696;2023-05-14T08:40:46;23.63;;;15.13;;
58208;SDS011;44006;52.028;4.696;2023-05-14T08:43:11;20.27;;;15.05;;
58208;SDS011;44006;52.028;4.696;2023-05-14T08:45:37;20.88;;;14.77;;
58208;SDS011;44006;52.028;4.696;2023-05-14T08:48:04;20.20;;;15.05;;
58208;SDS011;44006;52.028;4.696;2023-05-14T08:50:32;19.85;;;14.07;;
58208;SDS011;44006;52.028;4.696;2023-05-14T08:52:58;23.67;;;15.27;;
58208;SDS011;44006;52.028;4.696;2023-05-14T08:55:23;18.00;;;14.67;;
58208;SDS011;44006;52.028;4.696;2023-05-14T08:57:50;17.73;;;13.43;;
58208;SDS011;44006;52.028;4.696;2023-05-14T09:00:15;20.52;;;14.35;;
58208;SDS011;44006;52.028;4.696;2023-05-14T09:02:40;20.75;;;15.05;;
58208;SDS011;44006;52.028;4.696;2023-05-14T09:05:06;20.73;;;14.02;;
58208;SDS011;44006;52.028;4.696;2023-05-14T09:07:33;17.13;;;13.68;;
58208;SDS011;44006;52.028;4.696;2023-05-14T09:09:59;20.70;;;13.95;;
58208;SDS011;44006;52.028;4.696;2023-05-14T09:12:24;19.65;;;13.82;;
58208;SDS011;44006;52.028;4.696;2023-05-14T09:14:50;23.02;;;14.20;;
58208;SDS011;44006;52.028;4.696;2023-05-14T09:17:15;19.67;;;13.55;;
58208;SDS011;44006;52.028;4.696;2023-05-14T09:19:41;19.48;;;14.13;;
58208;SDS011;44006;52.028;4.696;2023-05-14T09:22:12;19.02;;;13.32;;
58208;SDS011;44006;52.028;4.696;2023-05-14T09:24:37;20.10;;;13.85;;
58208;SDS011;44006;52.028;4.696;2023-05-14T09:27:03;19.55;;;14.02;;
58208;SDS011;44006;52.028;4.696;2023-05-14T09:29:28;18.83;;;13.57;;
58208;SDS011;44006;52.028;4.696;2023-05-14T09:31:54;20.02;;;14.07;;
58208;SDS011;44006;52.028;4.696;2023-05-14T09:34:26;18.63;;;13.82;;
58208;SDS011;44006;52.028;4.696;2023-05-14T09:36:55;17.35;;;14.00;;
58208;SDS011;44006;52.028;4.696;2023-05-14T09:39:22;17.55;;;14.32;;
58208;SDS011;44006;52.028;4.696;2023-05-14T09:41:48;18.20;;;12.75;;
58208;SDS011;44006;52.028;4.696;2023-05-14T09:44:15;20.38;;;13.10;;
58208;SDS011;44006;52.028;4.696;2023-05-14T09:46:41;18.42;;;13.18;;
58208;SDS011;44006;52.028;4.696;2023-05-14T09:49:06;18.75;;;13.27;;
58208;SDS011;44006;52.028;4.696;2023-05-14T09:51:31;17.23;;;11.93;;
58208;SDS011;44006;52.028;4.696;2023-05-14T09:53:56;18.27;;;13.60;;
58208;SDS011;44006;52.028;4.696;2023-05-14T09:56:22;18.10;;;12.27;;
58208;SDS011;44006;52.028;4.696;2023-05-14T09:58:47;19.90;;;11.82;;
58208;SDS011;44006;52.028;4.696;2023-05-14T10:01:13;17.83;;;12.13;;
58208;SDS011;44006;52.028;4.696;2023-05-14T10:03:39;14.13;;;11.63;;
58208;SDS011;44006;52.028;4.696;2023-05-14T10:06:15;14.95;;;11.57;;
58208;SDS011;44006;52.028;4.696;2023-05-14T10:08:45;17.52;;;11.00;;
58208;SDS011;44006;52.028;4.696;2023-05-14T10:11:13;14.55;;;10.55;;
58208;SDS011;44006;52.028;4.696;2023-05-14T10:13:40;18.85;;;10.75;;
58208;SDS011;44006;52.028;4.696;2023-05-14T10:18:38;14.35;;;9.60;;
58208;SDS011;44006;52.028;4.696;2023-05-14T10:21:04;16.85;;;10.27;;
58208;SDS011;44006;52.028;4.696;2023-05-14T10:23:29;13.75;;;9.82;;
58208;SDS011;44006;52.028;4.696;2023-05-14T10:25:55;11.95;;;9.48;;
58208;SDS011;44006;52.028;4.696;2023-05-14T10:28:21;20.10;;;10.18;;
58208;SDS011;44006;52.028;4.696;2023-05-14T10:30:46;16.95;;;9.73;;
58208;SDS011;44006;52.028;4.696;2023-05-14T10:33:13;13.93;;;9.18;;
58208;SDS011;44006;52.028;4.696;2023-05-14T10:38:25;15.90;;;9.52;;
58208;SDS011;44006;52.028;4.696;2023-05-14T10:40:53;16.50;;;9.55;;
58208;SDS011;44006;52.028;4.696;2023-05-14T10:43:18;15.30;;;8.57;;
58208;SDS011;44006;52.028;4.696;2023-05-14T10:45:44;15.75;;;8.38;;
58208;SDS011;44006;52.028;4.696;2023-05-14T10:48:10;14.60;;;8.65;;
58208;SDS011;44006;52.028;4.696;2023-05-14T10:50:35;14.23;;;7.65;;
58208;SDS011;44006;52.028;4.696;2023-05-14T10:53:01;14.27;;;7.03;;
58208;SDS011;44006;52.028;4.696;2023-05-14T10:55:26;9.40;;;6.88;;
58208;SDS011;44006;52.028;4.696;2023-05-14T10:57:52;17.10;;;8.38;;
58208;SDS011;44006;52.028;4.696;2023-05-14T11:00:18;9.85;;;6.72;;
58208;SDS011;44006;52.028;4.696;2023-05-14T11:02:43;14.70;;;7.32;;
58208;SDS011;44006;52.028;4.696;2023-05-14T11:05:09;11.77;;;7.18;;
58208;SDS011;44006;52.028;4.696;2023-05-14T11:07:54;11.38;;;6.85;;
58208;SDS011;44006;52.028;4.696;2023-05-14T11:10:23;11.93;;;7.10;;
58208;SDS011;44006;52.028;4.696;2023-05-14T11:12:54;12.95;;;7.38;;
58208;SDS011;44006;52.028;4.696;2023-05-14T11:15:20;13.55;;;7.20;;
58208;SDS011;44006;52.028;4.696;2023-05-14T11:17:46;12.55;;;7.47;;
58208;SDS011;44006;52.028;4.696;2023-05-14T11:20:12;13.63;;;7.47;;
58208;SDS011;44006;52.028;4.696;2023-05-14T11:22:40;12.50;;;7.63;;
58208;SDS011;44006;52.028;4.696;2023-05-14T11:25:06;12.43;;;7.25;;
58208;SDS011;44006;52.028;4.696;2023-05-14T11:27:35;11.95;;;7.07;;
58208;SDS011;44006;52.028;4.696;2023-05-14T11:30:01;13.15;;;7.55;;
58208;SDS011;44006;52.028;4.696;2023-05-14T11:32:26;14.32;;;7.45;;
58208;SDS011;44006;52.028;4.696;2023-05-14T11:34:52;10.40;;;6.90;;
58208;SDS011;44006;52.028;4.696;2023-05-14T11:37:24;13.77;;;6.60;;
58208;SDS011;44006;52.028;4.696;2023-05-14T11:42:43;13.82;;;7.32;;
58208;SDS011;44006;52.028;4.696;2023-05-14T11:45:11;9.52;;;7.10;;
58208;SDS011;44006;52.028;4.696;2023-05-14T11:47:39;11.77;;;7.07;;
58208;SDS011;44006;52.028;4.696;2023-05-14T11:50:05;12.70;;;6.88;;
58208;SDS011;44006;52.028;4.696;2023-05-14T11:52:33;11.07;;;6.78;;
58208;SDS011;44006;52.028;4.696;2023-05-14T11:55:00;11.93;;;7.28;;
58208;SDS011;44006;52.028;4.696;2023-05-14T11:57:26;13.80;;;7.47;;
58208;SDS011;44006;52.028;4.696;2023-05-14T11:59:54;10.13;;;7.10;;
58208;SDS011;44006;52.028;4.696;2023-05-14T12:02:22;14.63;;;7.32;;
58208;SDS011;44006;52.028;4.696;2023-05-14T12:04:50;16.52;;;7.20;;
58208;SDS011;44006;52.028;4.696;2023-05-14T12:07:17;15.02;;;7.75;;
58208;SDS011;44006;52.028;4.696;2023-05-14T12:09:43;15.57;;;7.50;;
58208;SDS011;44006;52.028;4.696;2023-05-14T12:12:18;12.65;;;7.00;;
58208;SDS011;44006;52.028;4.696;2023-05-14T12:14:44;13.95;;;7.78;;
58208;SDS011;44006;52.028;4.696;2023-05-14T12:17:11;13.93;;;7.53;;
58208;SDS011;44006;52.028;4.696;2023-05-14T12:19:38;16.40;;;7.68;;
58208;SDS011;44006;52.028;4.696;2023-05-14T12:22:04;12.57;;;7.45;;
58208;SDS011;44006;52.028;4.696;2023-05-14T12:24:29;12.10;;;6.90;;
58208;SDS011;44006;52.028;4.696;2023-05-14T12:26:54;16.17;;;7.30;;
58208;SDS011;44006;52.028;4.696;2023-05-14T12:29:24;13.40;;;7.30;;
58208;SDS011;44006;52.028;4.696;2023-05-14T12:31:50;12.75;;;7.13;;
58208;SDS011;44006;52.028;4.696;2023-05-14T12:34:15;13.85;;;7.03;;
58208;SDS011;44006;52.028;4.696;2023-05-14T12:36:41;14.77;;;7.43;;
58208;SDS011;44006;52.028;4.696;2023-05-14T12:39:08;12.57;;;6.95;;
58208;SDS011;44006;52.028;4.696;2023-05-14T12:41:33;13.82;;;6.80;;
58208;SDS011;44006;52.028;4.696;2023-05-14T12:44:00;12.63;;;6.32;;
58208;SDS011;44006;52.028;4.696;2023-05-14T12:46:26;11.65;;;6.55;;
58208;SDS011;44006;52.028;4.696;2023-05-14T12:48:52;15.52;;;7.15;;
58208;SDS011;44006;52.028;4.696;2023-05-14T12:51:17;15.57;;;7.00;;
58208;SDS011;44006;52.028;4.696;2023-05-14T12:53:44;16.42;;;6.82;;
58208;SDS011;44006;52.028;4.696;2023-05-14T12:56:09;11.25;;;7.22;;
58208;SDS011;44006;52.028;4.696;2023-05-14T12:58:35;15.30;;;7.07;;
58208;SDS011;44006;52.028;4.696;2023-05-14T13:01:02;12.82;;;6.90;;
58208;SDS011;44006;52.028;4.696;2023-05-14T13:03:27;13.27;;;7.20;;
58208;SDS011;44006;52.028;4.696;2023-05-14T13:05:52;12.27;;;6.60;;
58208;SDS011;44006;52.028;4.696;2023-05-14T13:08:20;14.52;;;6.55;;
58208;SDS011;44006;52.028;4.696;2023-05-14T13:10:46;13.52;;;7.22;;
58208;SDS011;44006;52.028;4.696;2023-05-14T13:13:12;9.80;;;6.15;;
58208;SDS011;44006;52.028;4.696;2023-05-14T13:15:39;14.18;;;7.32;;
58208;SDS011;44006;52.028;4.696;2023-05-14T13:18:04;15.48;;;8.25;;
58208;SDS011;44006;52.028;4.696;2023-05-14T13:20:29;18.85;;;8.60;;
58208;SDS011;44006;52.028;4.696;2023-05-14T13:22:55;12.73;;;7.57;;
58208;SDS011;44006;52.028;4.696;2023-05-14T13:25:20;17.30;;;7.93;;
58208;SDS011;44006;52.028;4.696;2023-05-14T13:27:46;14.93;;;7.93;;
58208;SDS011;44006;52.028;4.696;2023-05-14T13:30:11;19.73;;;7.20;;
58208;SDS011;44006;52.028;4.696;2023-05-14T13:32:36;20.67;;;7.60;;
58208;SDS011;44006;52.028;4.696;2023-05-14T13:35:02;15.77;;;7.55;;
58208;SDS011;44006;52.028;4.696;2023-05-14T13:37:28;15.77;;;8.00;;
58208;SDS011;44006;52.028;4.696;2023-05-14T13:39:54;12.60;;;7.65;;
58208;SDS011;44006;52.028;4.696;2023-05-14T13:42:19;14.45;;;8.10;;
58208;SDS011;44006;52.028;4.696;2023-05-14T13:44:44;13.82;;;8.38;;
58208;SDS011;44006;52.028;4.696;2023-05-14T13:47:09;15.32;;;7.80;;
58208;SDS011;44006;52.028;4.696;2023-05-14T13:49:35;13.73;;;7.40;;
58208;SDS011;44006;52.028;4.696;2023-05-14T13:52:00;14.63;;;7.10;;
58208;SDS011;44006;52.028;4.696;2023-05-14T13:54:25;16.02;;;7.53;;
58208;SDS011;44006;52.028;4.696;2023-05-14T13:56:50;18.48;;;8.32;;
58208;SDS011;44006;52.028;4.696;2023-05-14T13:59:16;14.13;;;7.63;;
58208;SDS011;44006;52.028;4.696;2023-05-14T14:01:42;13.23;;;7.50;;
58208;SDS011;44006;52.028;4.696;2023-05-14T14:04:08;18.15;;;7.82;;
58208;SDS011;44006;52.028;4.696;2023-05-14T14:06:33;13.82;;;7.45;;
58208;SDS011;44006;52.028;4.696;2023-05-14T14:08:58;17.45;;;7.45;;
58208;SDS011;44006;52.028;4.696;2023-05-14T14:11:24;15.57;;;7.75;;
58208;SDS011;44006;52.028;4.696;2023-05-14T14:13:49;17.30;;;7.18;;
58208;SDS011;44006;52.028;4.696;2023-05-14T14:16:14;17.35;;;8.90;;
58208;SDS011;44006;52.028;4.696;2023-05-14T14:18:40;13.40;;;6.90;;
58208;SDS011;44006;52.028;4.696;2023-05-14T14:21:07;13.50;;;7.20;;
58208;SDS011;44006;52.028;4.696;2023-05-14T14:23:32;13.88;;;7.30;;
58208;SDS011;44006;52.028;4.696;2023-05-14T14:25:57;15.82;;;7.47;;
58208;SDS011;44006;52.028;4.696;2023-05-14T14:28:22;17.75;;;7.65;;
58208;SDS011;44006;52.028;4.696;2023-05-14T14:30:48;15.10;;;7.40;;
58208;SDS011;44006;52.028;4.696;2023-05-14T14:33:14;13.70;;;7.18;;
58208;SDS011;44006;52.028;4.696;2023-05-14T14:35:39;15.43;;;8.02;;
58208;SDS011;44006;52.028;4.696;2023-05-14T14:38:07;13.68;;;7.18;;
58208;SDS011;44006;52.028;4.696;2023-05-14T14:40:32;13.57;;;7.88;;
58208;SDS011;44006;52.028;4.696;2023-05-14T14:42:58;43.40;;;12.00;;